sensor_id;sensor_type;location;lat;lon;timestamp;P1;durP1;ratioP1;P2;durP2;ratioP2
29916;SDS011;16786;49.466;11.068;2023-07-31T00:01:37;9.73;;;4.15;;
29916;SDS011;16786;49.466;11.068;2023-07-31T00:04:07;9.95;;;3.58;;
29916;SDS011;16786;49.466;11.068;2023-07-31T00:06:37;7.68;;;3.55;;
29916;SDS011;16786;49.466;11.068;2023-07-31T00:09:08;6.70;;;3.20;;
29916;SDS011;16786;49.466;11.068;2023-07-31T00:11:39;10.07;;;3.33;;
29916;SDS011;16786;49.466;11.068;2023-07-31T00:14:14;8.07;;;3.78;;
29916;SDS011;16786;49.466;11.068;2023-07-31T00:16:45;9.55;;;3.70;;
29916;SDS011;16786;49.466;11.068;2023-07-31T00:19:19;8.85;;;3.28;;
29916;SDS011;16786;49.466;11.068;2023-07-31T00:21:48;10.93;;;3.65;;
29916;SDS011;16786;49.466;11.068;2023-07-31T00:24:19;5.70;;;3.58;;
29916;SDS011;16786;49.466;11.068;2023-07-31T00:26:53;7.10;;;3.47;;
29916;SDS011;16786;49.466;11.068;2023-07-31T00:29:24;6.22;;;3.20;;
29916;SDS011;16786;49.466;11.068;2023-07-31T00:31:54;8.70;;;3.50;;
29916;SDS011;16786;49.466;11.068;2023-07-31T00:34:24;5.28;;;3.47;;
29916;SDS011;16786;49.466;11.068;2023-07-31T00:36:56;7.85;;;3.47;;
29916;SDS011;16786;49.466;11.068;2023-07-31T00:39:26;8.60;;;3.30;;
29916;SDS011;16786;49.466;11.068;2023-07-31T00:41:57;6.82;;;3.38;;
29916;SDS011;16786;49.466;11.068;2023-07-31T00:47:00;7.22;;;3.38;;
29916;SDS011;16786;49.466;11.068;2023-07-31T00:49:38;7.45;;;3.35;;
29916;SDS011;16786;49.466;11.068;2023-07-31T00:52:09;13.18;;;3.97;;
29916;SDS011;16786;49.466;11.068;2023-07-31T00:54:42;8.07;;;3.53;;
29916;SDS011;16786;49.466;11.068;2023-07-31T00:57:13;9.82;;;3.53;;
29916;SDS011;16786;49.466;11.068;2023-07-31T01:02:14;10.52;;;3.63;;
29916;SDS011;16786;49.466;11.068;2023-07-31T01:04:47;5.88;;;3.45;;
29916;SDS011;16786;49.466;11.068;2023-07-31T01:10:15;4.78;;;2.90;;
29916;SDS011;16786;49.466;11.068;2023-07-31T01:12:53;6.55;;;3.72;;
29916;SDS011;16786;49.466;11.068;2023-07-31T01:15:24;4.10;;;2.92;;
29916;SDS011;16786;49.466;11.068;2023-07-31T01:17:56;7.45;;;3.85;;
29916;SDS011;16786;49.466;11.068;2023-07-31T01:20:25;5.60;;;3.45;;
29916;SDS011;16786;49.466;11.068;2023-07-31T01:23:08;6.05;;;3.35;;
29916;SDS011;16786;49.466;11.068;2023-07-31T01:29:01;8.13;;;3.22;;
29916;SDS011;16786;49.466;11.068;2023-07-31T01:31:40;5.72;;;2.97;;
29916;SDS011;16786;49.466;11.068;2023-07-31T01:34:11;7.00;;;3.30;;
29916;SDS011;16786;49.466;11.068;2023-07-31T01:36:43;6.75;;;3.58;;
29916;SDS011;16786;49.466;11.068;2023-07-31T01:39:11;4.63;;;3.35;;
29916;SDS011;16786;49.466;11.068;2023-07-31T01:41:40;7.88;;;3.20;;
29916;SDS011;16786;49.466;11.068;2023-07-31T01:44:12;9.88;;;3.60;;
29916;SDS011;16786;49.466;11.068;2023-07-31T01:46:40;7.75;;;3.15;;
29916;SDS011;16786;49.466;11.068;2023-07-31T01:49:09;7.30;;;3.03;;
29916;SDS011;16786;49.466;11.068;2023-07-31T01:51:41;5.03;;;3.07;;
29916;SDS011;16786;49.466;11.068;2023-07-31T01:54:10;6.25;;;3.55;;
29916;SDS011;16786;49.466;11.068;2023-07-31T01:56:39;7.68;;;3.70;;
29916;SDS011;16786;49.466;11.068;2023-07-31T01:59:07;8.23;;;3.83;;
29916;SDS011;16786;49.466;11.068;2023-07-31T02:01:34;6.32;;;3.30;;
29916;SDS011;16786;49.466;11.068;2023-07-31T02:04:02;7.60;;;3.75;;
29916;SDS011;16786;49.466;11.068;2023-07-31T02:06:31;6.60;;;3.42;;
29916;SDS011;16786;49.466;11.068;2023-07-31T02:08:58;7.55;;;3.58;;
29916;SDS011;16786;49.466;11.068;2023-07-31T02:11:26;5.15;;;3.25;;
29916;SDS011;16786;49.466;11.068;2023-07-31T02:13:53;4.80;;;3.03;;
29916;SDS011;16786;49.466;11.068;2023-07-31T02:16:21;6.55;;;3.53;;
29916;SDS011;16786;49.466;11.068;2023-07-31T02:18:48;6.88;;;3.30;;
29916;SDS011;16786;49.466;11.068;2023-07-31T02:21:16;6.47;;;3.00;;
29916;SDS011;16786;49.466;11.068;2023-07-31T02:23:43;7.15;;;3.30;;
29916;SDS011;16786;49.466;11.068;2023-07-31T02:26:10;6.80;;;3.20;;
29916;SDS011;16786;49.466;11.068;2023-07-31T02:28:38;5.78;;;3.17;;
29916;SDS011;16786;49.466;11.068;2023-07-31T02:31:05;6.70;;;3.42;;
29916;SDS011;16786;49.466;11.068;2023-07-31T02:33:33;5.50;;;3.50;;
29916;SDS011;16786;49.466;11.068;2023-07-31T02:36:01;7.05;;;3.30;;
29916;SDS011;16786;49.466;11.068;2023-07-31T02:38:28;6.15;;;3.42;;
29916;SDS011;16786;49.466;11.068;2023-07-31T02:40:55;8.57;;;4.13;;
29916;SDS011;16786;49.466;11.068;2023-07-31T02:43:23;6.22;;;3.88;;
29916;SDS011;16786;49.466;11.068;2023-07-31T02:45:53;8.13;;;3.50;;
29916;SDS011;16786;49.466;11.068;2023-07-31T02:48:23;7.47;;;3.80;;
29916;SDS011;16786;49.466;11.068;2023-07-31T02:50:50;10.10;;;3.80;;
29916;SDS011;16786;49.466;11.068;2023-07-31T02:53:17;7.80;;;4.07;;
29916;SDS011;16786;49.466;11.068;2023-07-31T02:55:45;10.05;;;3.63;;
29916;SDS011;16786;49.466;11.068;2023-07-31T02:58:12;8.05;;;3.63;;
29916;SDS011;16786;49.466;11.068;2023-07-31T03:00:43;6.18;;;3.40;;
29916;SDS011;16786;49.466;11.068;2023-07-31T03:03:11;6.30;;;3.65;;
29916;SDS011;16786;49.466;11.068;2023-07-31T03:05:38;7.50;;;3.72;;
29916;SDS011;16786;49.466;11.068;2023-07-31T03:08:06;5.78;;;3.78;;
29916;SDS011;16786;49.466;11.068;2023-07-31T03:10:33;6.95;;;3.50;;
29916;SDS011;16786;49.466;11.068;2023-07-31T03:13:00;7.30;;;3.80;;
29916;SDS011;16786;49.466;11.068;2023-07-31T03:15:28;8.23;;;3.90;;
29916;SDS011;16786;49.466;11.068;2023-07-31T03:17:55;8.20;;;3.80;;
29916;SDS011;16786;49.466;11.068;2023-07-31T03:20:23;7.50;;;3.63;;
29916;SDS011;16786;49.466;11.068;2023-07-31T03:22:50;6.88;;;3.58;;
29916;SDS011;16786;49.466;11.068;2023-07-31T03:25:17;8.02;;;3.28;;
29916;SDS011;16786;49.466;11.068;2023-07-31T03:27:45;5.75;;;3.53;;
29916;SDS011;16786;49.466;11.068;2023-07-31T03:30:12;11.05;;;4.13;;
29916;SDS011;16786;49.466;11.068;2023-07-31T03:32:39;6.30;;;3.70;;
29916;SDS011;16786;49.466;11.068;2023-07-31T03:35:07;5.93;;;3.80;;
29916;SDS011;16786;49.466;11.068;2023-07-31T03:37:35;6.50;;;3.97;;
29916;SDS011;16786;49.466;11.068;2023-07-31T03:40:02;10.73;;;4.13;;
29916;SDS011;16786;49.466;11.068;2023-07-31T03:42:31;6.75;;;3.80;;
29916;SDS011;16786;49.466;11.068;2023-07-31T03:44:58;10.75;;;4.97;;
29916;SDS011;16786;49.466;11.068;2023-07-31T03:47:26;6.10;;;3.60;;
29916;SDS011;16786;49.466;11.068;2023-07-31T03:49:53;7.13;;;3.90;;
29916;SDS011;16786;49.466;11.068;2023-07-31T03:52:20;9.23;;;4.90;;
29916;SDS011;16786;49.466;11.068;2023-07-31T03:54:48;7.22;;;4.35;;
29916;SDS011;16786;49.466;11.068;2023-07-31T03:57:15;6.28;;;3.97;;
29916;SDS011;16786;49.466;11.068;2023-07-31T03:59:43;7.25;;;3.85;;
29916;SDS011;16786;49.466;11.068;2023-07-31T04:02:10;6.30;;;3.75;;
29916;SDS011;16786;49.466;11.068;2023-07-31T04:04:37;4.80;;;3.45;;
29916;SDS011;16786;49.466;11.068;2023-07-31T04:07:05;10.00;;;3.53;;
29916;SDS011;16786;49.466;11.068;2023-07-31T04:09:32;7.75;;;3.80;;
29916;SDS011;16786;49.466;11.068;2023-07-31T04:11:59;9.05;;;4.63;;
29916;SDS011;16786;49.466;11.068;2023-07-31T04:14:27;6.68;;;3.60;;
29916;SDS011;16786;49.466;11.068;2023-07-31T04:16:54;8.48;;;3.70;;
29916;SDS011;16786;49.466;11.068;2023-07-31T04:19:22;8.63;;;4.72;;
29916;SDS011;16786;49.466;11.068;2023-07-31T04:21:49;8.57;;;4.35;;
29916;SDS011;16786;49.466;11.068;2023-07-31T04:24:16;8.32;;;5.15;;
29916;SDS011;16786;49.466;11.068;2023-07-31T04:26:51;5.93;;;4.05;;
29916;SDS011;16786;49.466;11.068;2023-07-31T04:29:19;6.88;;;3.67;;
29916;SDS011;16786;49.466;11.068;2023-07-31T04:31:47;8.00;;;3.83;;
29916;SDS011;16786;49.466;11.068;2023-07-31T04:34:15;8.15;;;4.18;;
29916;SDS011;16786;49.466;11.068;2023-07-31T04:36:42;9.90;;;4.13;;
29916;SDS011;16786;49.466;11.068;2023-07-31T04:39:09;6.63;;;4.13;;
29916;SDS011;16786;49.466;11.068;2023-07-31T04:41:37;7.85;;;3.80;;
29916;SDS011;16786;49.466;11.068;2023-07-31T04:44:04;7.70;;;3.80;;
29916;SDS011;16786;49.466;11.068;2023-07-31T04:46:31;8.93;;;4.07;;
29916;SDS011;16786;49.466;11.068;2023-07-31T04:48:59;9.25;;;4.10;;
29916;SDS011;16786;49.466;11.068;2023-07-31T04:51:27;9.95;;;4.28;;
29916;SDS011;16786;49.466;11.068;2023-07-31T04:53:55;9.80;;;4.25;;
29916;SDS011;16786;49.466;11.068;2023-07-31T04:56:23;7.50;;;4.15;;
29916;SDS011;16786;49.466;11.068;2023-07-31T04:58:50;7.68;;;4.47;;
29916;SDS011;16786;49.466;11.068;2023-07-31T05:01:18;11.75;;;4.75;;
29916;SDS011;16786;49.466;11.068;2023-07-31T05:03:45;8.68;;;4.45;;
29916;SDS011;16786;49.466;11.068;2023-07-31T05:06:12;9.13;;;4.45;;
29916;SDS011;16786;49.466;11.068;2023-07-31T05:08:42;7.90;;;4.13;;
29916;SDS011;16786;49.466;11.068;2023-07-31T05:11:09;9.10;;;4.60;;
29916;SDS011;16786;49.466;11.068;2023-07-31T05:13:36;7.57;;;4.38;;
29916;SDS011;16786;49.466;11.068;2023-07-31T05:16:04;10.82;;;4.82;;
29916;SDS011;16786;49.466;11.068;2023-07-31T05:18:31;7.03;;;4.18;;
29916;SDS011;16786;49.466;11.068;2023-07-31T05:20:58;10.68;;;3.95;;
29916;SDS011;16786;49.466;11.068;2023-07-31T05:23:26;6.95;;;4.38;;
29916;SDS011;16786;49.466;11.068;2023-07-31T05:25:53;9.18;;;4.10;;
29916;SDS011;16786;49.466;11.068;2023-07-31T05:28:21;7.72;;;4.03;;
29916;SDS011;16786;49.466;11.068;2023-07-31T05:30:48;5.97;;;4.28;;
29916;SDS011;16786;49.466;11.068;2023-07-31T05:33:15;8.18;;;4.70;;
29916;SDS011;16786;49.466;11.068;2023-07-31T05:35:43;7.15;;;4.15;;
29916;SDS011;16786;49.466;11.068;2023-07-31T05:38:11;8.98;;;4.05;;
29916;SDS011;16786;49.466;11.068;2023-07-31T05:40:39;11.10;;;4.25;;
29916;SDS011;16786;49.466;11.068;2023-07-31T05:43:06;6.43;;;4.07;;
29916;SDS011;16786;49.466;11.068;2023-07-31T05:45:35;6.75;;;4.50;;
29916;SDS011;16786;49.466;11.068;2023-07-31T05:48:03;6.55;;;3.97;;
29916;SDS011;16786;49.466;11.068;2023-07-31T05:50:31;7.55;;;4.15;;
29916;SDS011;16786;49.466;11.068;2023-07-31T05:52:58;8.55;;;4.28;;
29916;SDS011;16786;49.466;11.068;2023-07-31T05:55:26;9.18;;;4.10;;
29916;SDS011;16786;49.466;11.068;2023-07-31T05:57:53;5.53;;;4.30;;
29916;SDS011;16786;49.466;11.068;2023-07-31T06:00:21;5.03;;;3.88;;
29916;SDS011;16786;49.466;11.068;2023-07-31T06:02:49;8.57;;;4.35;;
29916;SDS011;16786;49.466;11.068;2023-07-31T06:05:16;11.15;;;5.75;;
29916;SDS011;16786;49.466;11.068;2023-07-31T06:07:44;7.38;;;4.97;;
29916;SDS011;16786;49.466;11.068;2023-07-31T06:10:11;6.05;;;4.72;;
29916;SDS011;16786;49.466;11.068;2023-07-31T06:12:38;6.50;;;4.70;;
29916;SDS011;16786;49.466;11.068;2023-07-31T06:15:06;6.10;;;4.07;;
29916;SDS011;16786;49.466;11.068;2023-07-31T06:17:33;6.00;;;3.97;;
29916;SDS011;16786;49.466;11.068;2023-07-31T06:20:01;6.50;;;4.45;;
29916;SDS011;16786;49.466;11.068;2023-07-31T06:22:28;7.60;;;4.40;;
29916;SDS011;16786;49.466;11.068;2023-07-31T06:24:55;9.63;;;4.57;;
29916;SDS011;16786;49.466;11.068;2023-07-31T06:27:23;8.13;;;4.72;;
29916;SDS011;16786;49.466;11.068;2023-07-31T06:29:50;7.63;;;4.55;;
29916;SDS011;16786;49.466;11.068;2023-07-31T06:32:18;8.85;;;4.70;;
29916;SDS011;16786;49.466;11.068;2023-07-31T06:34:45;7.35;;;4.53;;
29916;SDS011;16786;49.466;11.068;2023-07-31T06:37:12;7.03;;;4.15;;
29916;SDS011;16786;49.466;11.068;2023-07-31T06:39:40;7.55;;;4.40;;
29916;SDS011;16786;49.466;11.068;2023-07-31T06:42:07;5.45;;;4.38;;
29916;SDS011;16786;49.466;11.068;2023-07-31T06:44:35;6.60;;;4.70;;
29916;SDS011;16786;49.466;11.068;2023-07-31T06:47:02;20.63;;;12.70;;
29916;SDS011;16786;49.466;11.068;2023-07-31T06:49:30;9.13;;;5.20;;
29916;SDS011;16786;49.466;11.068;2023-07-31T06:51:57;9.20;;;5.13;;
29916;SDS011;16786;49.466;11.068;2023-07-31T06:54:25;6.65;;;4.68;;
29916;SDS011;16786;49.466;11.068;2023-07-31T06:56:52;7.15;;;4.70;;
29916;SDS011;16786;49.466;11.068;2023-07-31T06:59:20;8.07;;;5.00;;
29916;SDS011;16786;49.466;11.068;2023-07-31T07:01:48;6.43;;;4.47;;
29916;SDS011;16786;49.466;11.068;2023-07-31T07:04:15;7.18;;;4.80;;
29916;SDS011;16786;49.466;11.068;2023-07-31T07:06:43;8.20;;;4.78;;
29916;SDS011;16786;49.466;11.068;2023-07-31T07:09:10;7.20;;;5.00;;
29916;SDS011;16786;49.466;11.068;2023-07-31T07:11:37;7.30;;;4.72;;
29916;SDS011;16786;49.466;11.068;2023-07-31T07:14:06;7.80;;;4.80;;
29916;SDS011;16786;49.466;11.068;2023-07-31T07:16:33;7.57;;;4.53;;
29916;SDS011;16786;49.466;11.068;2023-07-31T07:19:01;6.95;;;5.03;;
29916;SDS011;16786;49.466;11.068;2023-07-31T07:21:30;6.72;;;4.45;;
29916;SDS011;16786;49.466;11.068;2023-07-31T07:23:58;9.65;;;4.78;;
29916;SDS011;16786;49.466;11.068;2023-07-31T07:26:25;7.07;;;4.47;;
29916;SDS011;16786;49.466;11.068;2023-07-31T07:28:53;11.57;;;4.95;;
29916;SDS011;16786;49.466;11.068;2023-07-31T07:31:20;9.30;;;4.80;;
29916;SDS011;16786;49.466;11.068;2023-07-31T07:33:48;8.07;;;4.40;;
29916;SDS011;16786;49.466;11.068;2023-07-31T07:36:15;7.82;;;4.47;;
29916;SDS011;16786;49.466;11.068;2023-07-31T07:38:43;10.40;;;5.05;;
29916;SDS011;16786;49.466;11.068;2023-07-31T07:41:10;7.10;;;4.80;;
29916;SDS011;16786;49.466;11.068;2023-07-31T07:43:38;8.88;;;4.63;;
29916;SDS011;16786;49.466;11.068;2023-07-31T07:46:05;6.47;;;4.63;;
29916;SDS011;16786;49.466;11.068;2023-07-31T07:48:32;7.28;;;5.20;;
29916;SDS011;16786;49.466;11.068;2023-07-31T07:50:59;6.93;;;4.80;;
29916;SDS011;16786;49.466;11.068;2023-07-31T07:53:27;7.68;;;5.03;;
29916;SDS011;16786;49.466;11.068;2023-07-31T07:55:54;8.35;;;4.95;;
29916;SDS011;16786;49.466;11.068;2023-07-31T07:58:21;9.18;;;5.13;;
29916;SDS011;16786;49.466;11.068;2023-07-31T08:00:52;7.43;;;4.75;;
29916;SDS011;16786;49.466;11.068;2023-07-31T08:03:19;7.80;;;4.78;;
29916;SDS011;16786;49.466;11.068;2023-07-31T08:05:47;7.60;;;4.80;;
29916;SDS011;16786;49.466;11.068;2023-07-31T08:08:15;10.20;;;4.80;;
29916;SDS011;16786;49.466;11.068;2023-07-31T08:10:45;6.43;;;4.63;;
29916;SDS011;16786;49.466;11.068;2023-07-31T08:13:12;8.45;;;4.43;;
29916;SDS011;16786;49.466;11.068;2023-07-31T08:15:42;8.77;;;4.80;;
29916;SDS011;16786;49.466;11.068;2023-07-31T08:18:10;8.57;;;4.70;;
29916;SDS011;16786;49.466;11.068;2023-07-31T08:20:40;6.63;;;4.97;;
29916;SDS011;16786;49.466;11.068;2023-07-31T08:23:07;8.52;;;4.85;;
29916;SDS011;16786;49.466;11.068;2023-07-31T08:25:35;7.45;;;5.40;;
29916;SDS011;16786;49.466;11.068;2023-07-31T08:28:03;9.32;;;5.07;;
29916;SDS011;16786;49.466;11.068;2023-07-31T08:30:32;9.45;;;4.70;;
29916;SDS011;16786;49.466;11.068;2023-07-31T08:33:03;6.93;;;4.75;;
29916;SDS011;16786;49.466;11.068;2023-07-31T08:35:30;8.27;;;5.30;;
29916;SDS011;16786;49.466;11.068;2023-07-31T08:37:58;9.50;;;4.97;;
29916;SDS011;16786;49.466;11.068;2023-07-31T08:40:25;9.55;;;4.85;;
29916;SDS011;16786;49.466;11.068;2023-07-31T08:42:54;9.48;;;5.25;;
29916;SDS011;16786;49.466;11.068;2023-07-31T08:45:23;10.35;;;5.45;;
29916;SDS011;16786;49.466;11.068;2023-07-31T08:47:51;8.73;;;5.88;;
29916;SDS011;16786;49.466;11.068;2023-07-31T08:50:19;9.85;;;5.10;;
29916;SDS011;16786;49.466;11.068;2023-07-31T08:52:48;7.05;;;5.18;;
29916;SDS011;16786;49.466;11.068;2023-07-31T08:55:17;7.70;;;5.18;;
29916;SDS011;16786;49.466;11.068;2023-07-31T08:57:52;8.13;;;4.53;;
29916;SDS011;16786;49.466;11.068;2023-07-31T09:00:22;8.00;;;4.85;;
29916;SDS011;16786;49.466;11.068;2023-07-31T09:05:56;5.68;;;4.13;;
29916;SDS011;16786;49.466;11.068;2023-07-31T09:08:24;8.15;;;4.35;;
29916;SDS011;16786;49.466;11.068;2023-07-31T09:10:58;7.22;;;4.43;;
29916;SDS011;16786;49.466;11.068;2023-07-31T09:13:32;7.15;;;4.57;;
29916;SDS011;16786;49.466;11.068;2023-07-31T09:15:59;6.68;;;4.45;;
29916;SDS011;16786;49.466;11.068;2023-07-31T09:18:27;7.22;;;4.90;;
29916;SDS011;16786;49.466;11.068;2023-07-31T09:21:04;8.85;;;5.15;;
29916;SDS011;16786;49.466;11.068;2023-07-31T09:23:42;6.85;;;4.85;;
29916;SDS011;16786;49.466;11.068;2023-07-31T09:26:11;8.23;;;4.65;;
29916;SDS011;16786;49.466;11.068;2023-07-31T09:28:55;8.48;;;4.82;;
29916;SDS011;16786;49.466;11.068;2023-07-31T09:31:38;13.25;;;4.82;;
29916;SDS011;16786;49.466;11.068;2023-07-31T09:34:08;9.02;;;5.15;;
29916;SDS011;16786;49.466;11.068;2023-07-31T09:36:44;6.97;;;4.57;;
29916;SDS011;16786;49.466;11.068;2023-07-31T09:39:12;11.02;;;4.80;;
29916;SDS011;16786;49.466;11.068;2023-07-31T09:41:42;7.68;;;5.07;;
29916;SDS011;16786;49.466;11.068;2023-07-31T09:44:11;7.75;;;4.75;;
29916;SDS011;16786;49.466;11.068;2023-07-31T09:46:39;8.93;;;5.43;;
29916;SDS011;16786;49.466;11.068;2023-07-31T09:49:11;9.82;;;4.97;;
29916;SDS011;16786;49.466;11.068;2023-07-31T09:51:40;9.52;;;5.00;;
29916;SDS011;16786;49.466;11.068;2023-07-31T09:54:12;6.28;;;4.85;;
29916;SDS011;16786;49.466;11.068;2023-07-31T09:56:44;7.45;;;5.50;;
29916;SDS011;16786;49.466;11.068;2023-07-31T09:59:14;7.25;;;5.10;;
29916;SDS011;16786;49.466;11.068;2023-07-31T10:04:13;8.43;;;5.03;;
29916;SDS011;16786;49.466;11.068;2023-07-31T10:06:42;5.85;;;4.70;;
29916;SDS011;16786;49.466;11.068;2023-07-31T10:09:13;8.38;;;4.90;;
29916;SDS011;16786;49.466;11.068;2023-07-31T10:11:50;7.50;;;5.05;;
29916;SDS011;16786;49.466;11.068;2023-07-31T10:14:22;8.20;;;5.28;;
29916;SDS011;16786;49.466;11.068;2023-07-31T10:16:51;6.32;;;5.00;;
29916;SDS011;16786;49.466;11.068;2023-07-31T10:19:19;7.20;;;5.15;;
29916;SDS011;16786;49.466;11.068;2023-07-31T10:21:48;8.32;;;5.60;;
29916;SDS011;16786;49.466;11.068;2023-07-31T10:24:16;9.43;;;5.57;;
29916;SDS011;16786;49.466;11.068;2023-07-31T10:26:44;6.80;;;5.20;;
29916;SDS011;16786;49.466;11.068;2023-07-31T10:29:14;8.90;;;5.07;;
29916;SDS011;16786;49.466;11.068;2023-07-31T10:31:43;9.52;;;5.10;;
29916;SDS011;16786;49.466;11.068;2023-07-31T10:34:11;6.45;;;5.18;;
29916;SDS011;16786;49.466;11.068;2023-07-31T10:36:39;7.18;;;5.22;;
29916;SDS011;16786;49.466;11.068;2023-07-31T10:39:32;5.40;;;4.70;;
29916;SDS011;16786;49.466;11.068;2023-07-31T10:42:10;7.43;;;4.80;;
29916;SDS011;16786;49.466;11.068;2023-07-31T10:44:43;8.52;;;5.32;;
29916;SDS011;16786;49.466;11.068;2023-07-31T10:47:14;6.88;;;4.68;;
29916;SDS011;16786;49.466;11.068;2023-07-31T10:49:46;8.73;;;5.35;;
29916;SDS011;16786;49.466;11.068;2023-07-31T10:52:13;5.60;;;5.10;;
29916;SDS011;16786;49.466;11.068;2023-07-31T10:57:49;12.90;;;5.10;;
29916;SDS011;16786;49.466;11.068;2023-07-31T11:00:18;6.38;;;4.70;;
29916;SDS011;16786;49.466;11.068;2023-07-31T11:02:55;8.55;;;5.00;;
29916;SDS011;16786;49.466;11.068;2023-07-31T11:08:28;7.88;;;4.90;;
29916;SDS011;16786;49.466;11.068;2023-07-31T11:13:32;7.95;;;5.20;;
29916;SDS011;16786;49.466;11.068;2023-07-31T11:16:01;7.53;;;4.70;;
29916;SDS011;16786;49.466;11.068;2023-07-31T11:18:28;7.00;;;4.97;;
29916;SDS011;16786;49.466;11.068;2023-07-31T11:20:56;7.72;;;5.05;;
29916;SDS011;16786;49.466;11.068;2023-07-31T11:23:23;6.32;;;5.10;;
29916;SDS011;16786;49.466;11.068;2023-07-31T11:25:50;6.47;;;4.97;;
29916;SDS011;16786;49.466;11.068;2023-07-31T11:28:18;10.98;;;5.88;;
29916;SDS011;16786;49.466;11.068;2023-07-31T11:30:46;7.57;;;4.90;;
29916;SDS011;16786;49.466;11.068;2023-07-31T11:33:14;8.73;;;5.40;;
29916;SDS011;16786;49.466;11.068;2023-07-31T11:35:45;8.30;;;5.47;;
29916;SDS011;16786;49.466;11.068;2023-07-31T11:38:25;8.77;;;5.13;;
29916;SDS011;16786;49.466;11.068;2023-07-31T11:40:54;8.38;;;5.22;;
29916;SDS011;16786;49.466;11.068;2023-07-31T11:43:23;7.03;;;4.82;;
29916;SDS011;16786;49.466;11.068;2023-07-31T11:45:51;10.40;;;5.80;;
29916;SDS011;16786;49.466;11.068;2023-07-31T11:48:25;8.20;;;5.38;;
29916;SDS011;16786;49.466;11.068;2023-07-31T11:50:55;10.48;;;4.97;;
29916;SDS011;16786;49.466;11.068;2023-07-31T11:53:47;7.85;;;5.15;;
29916;SDS011;16786;49.466;11.068;2023-07-31T11:56:16;6.82;;;5.20;;
29916;SDS011;16786;49.466;11.068;2023-07-31T11:58:45;6.28;;;4.82;;
29916;SDS011;16786;49.466;11.068;2023-07-31T12:01:18;9.75;;;5.40;;
29916;SDS011;16786;49.466;11.068;2023-07-31T12:03:47;8.23;;;5.20;;
29916;SDS011;16786;49.466;11.068;2023-07-31T12:06:16;8.38;;;5.13;;
29916;SDS011;16786;49.466;11.068;2023-07-31T12:08:44;8.05;;;5.13;;
29916;SDS011;16786;49.466;11.068;2023-07-31T12:11:11;8.35;;;4.97;;
29916;SDS011;16786;49.466;11.068;2023-07-31T12:13:42;7.20;;;5.10;;
29916;SDS011;16786;49.466;11.068;2023-07-31T12:16:09;7.45;;;5.40;;
29916;SDS011;16786;49.466;11.068;2023-07-31T12:18:37;8.05;;;5.18;;
29916;SDS011;16786;49.466;11.068;2023-07-31T12:21:08;6.38;;;4.75;;
29916;SDS011;16786;49.466;11.068;2023-07-31T12:23:38;12.13;;;5.68;;
29916;SDS011;16786;49.466;11.068;2023-07-31T12:28:38;7.50;;;5.43;;
29916;SDS011;16786;49.466;11.068;2023-07-31T12:33:47;7.82;;;5.32;;
29916;SDS011;16786;49.466;11.068;2023-07-31T12:36:18;7.57;;;5.60;;
29916;SDS011;16786;49.466;11.068;2023-07-31T12:38:48;7.15;;;5.55;;
29916;SDS011;16786;49.466;11.068;2023-07-31T12:41:17;7.78;;;5.63;;
29916;SDS011;16786;49.466;11.068;2023-07-31T12:43:45;7.78;;;5.78;;
29916;SDS011;16786;49.466;11.068;2023-07-31T12:46:12;6.50;;;5.45;;
29916;SDS011;16786;49.466;11.068;2023-07-31T12:48:40;7.93;;;5.60;;
29916;SDS011;16786;49.466;11.068;2023-07-31T12:51:08;9.13;;;5.57;;
29916;SDS011;16786;49.466;11.068;2023-07-31T12:53:35;9.00;;;5.45;;
29916;SDS011;16786;49.466;11.068;2023-07-31T12:56:03;11.50;;;6.35;;
29916;SDS011;16786;49.466;11.068;2023-07-31T12:58:31;5.88;;;4.82;;
29916;SDS011;16786;49.466;11.068;2023-07-31T13:00:59;8.90;;;5.32;;
29916;SDS011;16786;49.466;11.068;2023-07-31T13:03:26;7.13;;;5.15;;
29916;SDS011;16786;49.466;11.068;2023-07-31T13:05:54;7.55;;;5.72;;
29916;SDS011;16786;49.466;11.068;2023-07-31T13:08:21;8.40;;;5.38;;
29916;SDS011;16786;49.466;11.068;2023-07-31T13:10:49;5.75;;;4.88;;
29916;SDS011;16786;49.466;11.068;2023-07-31T13:13:16;7.88;;;5.25;;
29916;SDS011;16786;49.466;11.068;2023-07-31T13:15:43;6.18;;;5.20;;
29916;SDS011;16786;49.466;11.068;2023-07-31T13:18:12;10.45;;;5.90;;
29916;SDS011;16786;49.466;11.068;2023-07-31T13:20:39;7.65;;;5.53;;
29916;SDS011;16786;49.466;11.068;2023-07-31T13:23:06;9.63;;;5.22;;
29916;SDS011;16786;49.466;11.068;2023-07-31T13:25:34;7.25;;;5.60;;
29916;SDS011;16786;49.466;11.068;2023-07-31T13:28:01;7.32;;;5.28;;
29916;SDS011;16786;49.466;11.068;2023-07-31T13:30:29;8.80;;;5.78;;
29916;SDS011;16786;49.466;11.068;2023-07-31T13:32:57;7.57;;;5.70;;
29916;SDS011;16786;49.466;11.068;2023-07-31T13:35:24;9.27;;;5.50;;
29916;SDS011;16786;49.466;11.068;2023-07-31T13:37:52;9.40;;;5.28;;
29916;SDS011;16786;49.466;11.068;2023-07-31T13:40:19;8.85;;;5.47;;
29916;SDS011;16786;49.466;11.068;2023-07-31T13:42:46;6.80;;;4.70;;
29916;SDS011;16786;49.466;11.068;2023-07-31T13:45:15;6.78;;;5.18;;
29916;SDS011;16786;49.466;11.068;2023-07-31T13:47:42;8.93;;;5.15;;
29916;SDS011;16786;49.466;11.068;2023-07-31T13:50:09;8.68;;;5.43;;
29916;SDS011;16786;49.466;11.068;2023-07-31T13:52:37;6.65;;;5.40;;
29916;SDS011;16786;49.466;11.068;2023-07-31T13:55:04;8.93;;;5.47;;
29916;SDS011;16786;49.466;11.068;2023-07-31T13:57:32;6.90;;;5.50;;
29916;SDS011;16786;49.466;11.068;2023-07-31T13:59:59;7.05;;;5.13;;
29916;SDS011;16786;49.466;11.068;2023-07-31T14:02:30;9.03;;;5.50;;
29916;SDS011;16786;49.466;11.068;2023-07-31T14:04:58;7.78;;;5.65;;
29916;SDS011;16786;49.466;11.068;2023-07-31T14:07:25;7.10;;;6.00;;
29916;SDS011;16786;49.466;11.068;2023-07-31T14:09:52;7.25;;;5.53;;
29916;SDS011;16786;49.466;11.068;2023-07-31T14:12:20;8.48;;;5.80;;
29916;SDS011;16786;49.466;11.068;2023-07-31T14:15:07;7.32;;;5.60;;
29916;SDS011;16786;49.466;11.068;2023-07-31T14:17:35;6.80;;;5.82;;
29916;SDS011;16786;49.466;11.068;2023-07-31T14:20:03;6.70;;;5.40;;
29916;SDS011;16786;49.466;11.068;2023-07-31T14:22:31;6.75;;;5.45;;
29916;SDS011;16786;49.466;11.068;2023-07-31T14:25:00;6.50;;;5.85;;
29916;SDS011;16786;49.466;11.068;2023-07-31T14:27:28;6.70;;;6.00;;
29916;SDS011;16786;49.466;11.068;2023-07-31T14:29:55;8.70;;;5.97;;
29916;SDS011;16786;49.466;11.068;2023-07-31T14:32:23;6.95;;;6.00;;
29916;SDS011;16786;49.466;11.068;2023-07-31T14:34:52;6.72;;;5.60;;
29916;SDS011;16786;49.466;11.068;2023-07-31T14:37:21;6.63;;;5.90;;
29916;SDS011;16786;49.466;11.068;2023-07-31T14:39:48;7.40;;;6.07;;
29916;SDS011;16786;49.466;11.068;2023-07-31T14:42:17;8.07;;;6.20;;
29916;SDS011;16786;49.466;11.068;2023-07-31T14:44:46;6.75;;;6.05;;
29916;SDS011;16786;49.466;11.068;2023-07-31T14:47:14;8.13;;;5.93;;
29916;SDS011;16786;49.466;11.068;2023-07-31T14:49:41;7.85;;;6.22;;
29916;SDS011;16786;49.466;11.068;2023-07-31T14:52:08;8.02;;;6.45;;
29916;SDS011;16786;49.466;11.068;2023-07-31T14:54:36;7.47;;;6.65;;
29916;SDS011;16786;49.466;11.068;2023-07-31T14:57:03;10.10;;;6.40;;
29916;SDS011;16786;49.466;11.068;2023-07-31T14:59:31;8.02;;;5.97;;
29916;SDS011;16786;49.466;11.068;2023-07-31T15:01:58;7.10;;;6.40;;
29916;SDS011;16786;49.466;11.068;2023-07-31T15:04:26;8.93;;;5.60;;
29916;SDS011;16786;49.466;11.068;2023-07-31T15:06:53;7.00;;;5.70;;
29916;SDS011;16786;49.466;11.068;2023-07-31T15:09:20;6.75;;;6.05;;
29916;SDS011;16786;49.466;11.068;2023-07-31T15:11:48;8.05;;;6.00;;
29916;SDS011;16786;49.466;11.068;2023-07-31T15:14:15;7.32;;;5.82;;